Time;durP1;ratioP1;P1;durP2;ratioP2;P2;SDS_P1;SDS_P2;PMS_P1;PMS_P2;Temp;Humidity;BMP_temperature;BMP_pressure;BME280_temperature;BME280_humidity;BME280_pressure;Samples;Min_cycle;Max_cycle;Signal;HPM_P1;HPM_P2
2022/06/02 00:00:24;;;;;;;1.60;1.50;;;;;;;;;;7384798;19;20330;-75
2022/06/02 00:03:03;;;;;;;2.50;1.80;;;;;;;;;;7386913;19;20759;-75
2022/06/02 00:05:55;;;;;;;3.47;1.17;;;;;;;;;;7386667;19;20022;-75
2022/06/02 00:08:32;;;;;;;1.17;0.93;;;;;;;;;;7389291;19;20014;-75
2022/06/02 00:11:22;;;;;;;1.20;1.10;;;;;;;;;;7388638;19;20027;-75
2022/06/02 00:13:57;;;;;;;1.50;1.40;;;;;;;;;;7384596;19;20003;-75
2022/06/02 00:16:51;;;;;;;2.03;1.65;;;;;;;;;;7387834;19;20369;-75
2022/06/02 00:19:53;;;;;;;2.20;1.33;;;;;;;;;;7386995;19;20081;-75
2022/06/02 00:22:26;;;;;;;1.90;1.52;;;;;;;;;;7385213;19;20011;-74
2022/06/02 00:25:02;;;;;;;1.88;1.60;;;;;;;;;;7386222;19;20577;-75
2022/06/02 00:27:36;;;;;;;;;;;;;;;;;;7387366;19;20026;-75
2022/06/02 00:30:08;;;;;;;1.45;1.30;;;;;;;;;;7386718;19;19911;-75
2022/06/02 00:33:25;;;;;;;1.90;1.55;;;;;;;;;;7386904;19;20044;-75
2022/06/02 00:35:59;;;;;;;2.72;1.70;;;;;;;;;;7384502;19;20024;-75
2022/06/02 00:38:34;;;;;;;1.98;1.50;;;;;;;;;;7383766;19;20596;-74
2022/06/02 00:41:39;;;;;;;2.38;1.40;;;;;;;;;;7385439;19;20086;-75
2022/06/02 00:44:38;;;;;;;1.55;1.40;;;;;;;;;;7383868;19;20373;-75
2022/06/02 00:47:46;;;;;;;4.07;2.28;;;;;;;;;;7386720;19;20010;-75
2022/06/02 00:50:47;;;;;;;1.83;1.50;;;;;;;;;;7386827;19;20010;-75
2022/06/02 00:53:38;;;;;;;3.72;1.55;;;;;;;;;;7385754;19;20018;-75
2022/06/02 00:59:28;;;;;;;2.55;1.63;;;;;;;;;;7386848;19;20406;-74
2022/06/02 01:01:55;;;;;;;3.10;1.95;;;;;;;;;;7387432;19;20014;-75
2022/06/02 01:04:20;;;;;;;2.10;1.80;;;;;;;;;;7385690;19;20467;-74
2022/06/02 01:07:24;;;;;;;4.65;1.90;;;;;;;;;;7387933;19;20006;-75
2022/06/02 01:09:58;;;;;;;1.73;1.23;;;;;;;;;;7385917;19;20030;-75
2022/06/02 01:12:33;;;;;;;1.75;1.42;;;;;;;;;;7384983;19;20037;-75
2022/06/02 01:15:20;;;;;;;2.47;1.60;;;;;;;;;;7384485;19;20451;-75
2022/06/02 01:18:12;;;;;;;3.70;1.75;;;;;;;;;;7385832;19;20011;-75
2022/06/02 01:20:58;;;;;;;1.55;1.45;;;;;;;;;;7385895;19;20010;-75
2022/06/02 01:23:57;;;;;;;2.90;1.92;;;;;;;;;;7385341;19;20013;-75
2022/06/02 01:27:00;;;;;;;3.35;1.60;;;;;;;;;;7380032;19;20432;-74
2022/06/02 01:29:43;;;;;;;2.92;1.60;;;;;;;;;;7385346;19;20011;-75
2022/06/02 01:32:12;;;;;;;2.47;1.80;;;;;;;;;;7386555;19;20078;-75
2022/06/02 01:35:08;;;;;;;3.90;1.85;;;;;;;;;;7385215;19;20017;-75
2022/06/02 01:37:41;;;;;;;1.92;1.50;;;;;;;;;;7384352;19;20023;-75
2022/06/02 01:40:38;;;;;;;2.70;1.42;;;;;;;;;;7383552;19;20069;-75
2022/06/02 01:43:17;;;;;;;3.47;1.48;;;;;;;;;;7384493;19;20625;-74
2022/06/02 01:46:14;;;;;;;2.55;1.80;;;;;;;;;;7385238;19;20661;-74
2022/06/02 01:49:02;;;;;;;2.25;1.70;;;;;;;;;;7386240;19;20014;-75
2022/06/02 01:52:19;;;;;;;2.83;1.80;;;;;;;;;;7382085;19;20551;-75
2022/06/02 01:55:24;;;;;;;4.18;1.90;;;;;;;;;;7378875;19;20022;-75
2022/06/02 01:58:24;;;;;;;1.67;1.50;;;;;;;;;;7385234;19;20031;-75
2022/06/02 02:00:58;;;;;;;3.58;2.10;;;;;;;;;;7381187;19;20006;-75
2022/06/02 02:03:33;;;;;;;1.52;1.23;;;;;;;;;;7377382;19;20388;-74
2022/06/02 02:06:17;;;;;;;1.73;1.50;;;;;;;;;;7384770;19;20070;-75
2022/06/02 02:09:07;;;;;;;1.70;1.50;;;;;;;;;;7380851;19;20379;-75
2022/06/02 02:11:42;;;;;;;1.48;1.35;;;;;;;;;;7389879;19;20383;-75
2022/06/02 02:14:25;;;;;;;3.35;1.48;;;;;;;;;;7391057;19;20077;-75
2022/06/02 02:17:14;;;;;;;1.85;1.65;;;;;;;;;;7389605;19;22370;-75
2022/06/02 02:19:52;;;;;;;2.45;1.70;;;;;;;;;;7392172;19;20010;-75
2022/06/02 02:22:40;;;;;;;2.70;1.75;;;;;;;;;;7390894;19;20506;-75
2022/06/02 02:25:32;;;;;;;2.05;1.80;;;;;;;;;;7389897;19;20447;-75
2022/06/02 02:28:07;;;;;;;1.60;1.45;;;;;;;;;;7390981;19;19999;-75
2022/06/02 02:30:38;;;;;;;;;;;;;;;;;;7393882;19;20098;-75
2022/06/02 02:33:18;;;;;;;6.40;2.78;;;;;;;;;;7390943;19;19922;-75
2022/06/02 02:36:00;;;;;;;2.72;1.88;;;;;;;;;;7389810;19;20463;-75
2022/06/02 02:38:44;;;;;;;2.08;1.70;;;;;;;;;;7389166;19;20007;-74
2022/06/02 02:41:19;;;;;;;6.28;1.80;;;;;;;;;;7388764;19;20029;-74
2022/06/02 02:44:06;;;;;;;2.17;1.70;;;;;;;;;;7388123;19;20479;-75
2022/06/02 02:46:47;;;;;;;3.58;1.70;;;;;;;;;;7390611;19;20022;-75
2022/06/02 02:49:25;;;;;;;3.53;1.63;;;;;;;;;;7390746;19;20014;-75
2022/06/02 02:52:07;;;;;;;3.47;1.65;;;;;;;;;;7391957;19;20006;-75
2022/06/02 02:54:41;;;;;;;2.00;1.90;;;;;;;;;;7390589;19;20472;-75
2022/06/02 02:57:40;;;;;;;3.05;1.88;;;;;;;;;;7388545;19;20007;-75
2022/06/02 03:00:19;;;;;;;1.55;1.42;;;;;;;;;;7391589;19;20376;-75
2022/06/02 03:03:09;;;;;;;2.45;1.20;;;;;;;;;;7389092;19;20018;-75
2022/06/02 03:05:59;;;;;;;1.70;1.60;;;;;;;;;;7387434;19;20016;-75
2022/06/02 03:08:53;;;;;;;2.47;1.73;;;;;;;;;;7389369;19;20349;-75
2022/06/02 03:11:40;;;;;;;1.83;1.63;;;;;;;;;;7390446;19;20014;-75
2022/06/02 03:14:30;;;;;;;1.35;1.25;;;;;;;;;;7389649;19;20070;-75
2022/06/02 03:17:19;;;;;;;1.30;1.23;;;;;;;;;;7387672;19;20034;-75
2022/06/02 03:19:57;;;;;;;1.70;1.30;;;;;;;;;;7390935;19;20018;-75
2022/06/02 03:22:30;;;;;;;1.52;1.42;;;;;;;;;;7388542;19;20343;-75
2022/06/02 03:25:13;;;;;;;4.25;2.03;;;;;;;;;;7388225;19;20069;-75
2022/06/02 03:27:56;;;;;;;3.08;1.60;;;;;;;;;;7387801;19;20106;-75
2022/06/02 03:30:24;;;;;;;2.10;1.67;;;;;;;;;;7388845;19;19998;-75
2022/06/02 03:33:13;;;;;;;2.35;1.77;;;;;;;;;;7389593;19;20449;-75
2022/06/02 03:35:55;;;;;;;1.88;1.50;;;;;;;;;;7388878;19;20003;-75
2022/06/02 03:38:56;;;;;;;1.90;1.52;;;;;;;;;;7390551;19;20014;-75
2022/06/02 03:41:39;;;;;;;2.40;1.55;;;;;;;;;;7388444;19;20013;-75
2022/06/02 03:44:26;;;;;;;1.63;1.52;;;;;;;;;;7385968;19;20332;-75
2022/06/02 03:47:21;;;;;;;1.60;1.45;;;;;;;;;;7389505;19;20063;-76
2022/06/02 03:50:04;;;;;;;1.60;1.45;;;;;;;;;;7389932;19;20744;-76
2022/06/02 03:53:04;;;;;;;1.67;1.50;;;;;;;;;;7385991;19;20034;-76
2022/06/02 03:56:01;;;;;;;1.92;1.63;;;;;;;;;;7391449;19;20437;-76
2022/06/02 03:58:35;;;;;;;3.38;1.77;;;;;;;;;;7385135;19;20439;-76
2022/06/02 04:01:04;;;;;;;2.03;1.50;;;;;;;;;;7390789;19;20017;-75
2022/06/02 04:03:38;;;;;;;6.40;1.48;;;;;;;;;;7386844;19;20359;-76
2022/06/02 04:06:18;;;;;;;2.75;1.60;;;;;;;;;;7390172;19;20007;-76
2022/06/02 04:08:53;;;;;;;2.58;1.95;;;;;;;;;;7387940;19;20567;-76
2022/06/02 04:13:37;;;;;;;1.40;1.30;;;;;;;;;;7389760;19;20014;-76
2022/06/02 04:15:09;;;;;;;3.80;1.83;;;;;;;;;;7386252;19;20267;-75
2022/06/02 04:18:06;;;;;;;2.47;1.70;;;;;;;;;;7386886;19;20322;-75
2022/06/02 04:21:08;;;;;;;2.03;1.58;;;;;;;;;;7388758;19;20346;-75
2022/06/02 04:23:44;;;;;;;2.38;1.50;;;;;;;;;;7388994;19;20377;-78
2022/06/02 04:26:49;;;;;;;3.80;1.70;;;;;;;;;;7384335;19;20030;-75
2022/06/02 04:29:48;;;;;;;2.22;1.83;;;;;;;;;;7386497;19;20078;-75
2022/06/02 04:32:41;;;;;;;1.55;1.45;;;;;;;;;;7388718;19;20006;-75
2022/06/02 04:35:41;;;;;;;2.67;2.25;;;;;;;;;;7387706;19;20042;-75
2022/06/02 04:38:36;;;;;;;3.92;1.98;;;;;;;;;;7385410;19;20003;-76
2022/06/02 04:41:18;;;;;;;7.03;2.13;;;;;;;;;;7389201;19;20006;-75
2022/06/02 04:44:17;;;;;;;3.40;2.45;;;;;;;;;;7388177;19;20360;-75
2022/06/02 04:47:12;;;;;;;2.53;1.55;;;;;;;;;;7385799;19;20034;-75
2022/06/02 04:49:55;;;;;;;1.63;1.40;;;;;;;;;;7388147;19;20013;-75
2022/06/02 04:52:49;;;;;;;2.70;1.50;;;;;;;;;;7389305;19;20106;-76
2022/06/02 04:55:46;;;;;;;2.03;1.80;;;;;;;;;;7390700;19;20006;-76
2022/06/02 04:58:15;;;;;;;;;;;;;;;;;;7386331;19;20598;-76
2022/06/02 05:00:46;;;;;;;1.75;1.63;;;;;;;;;;7385586;19;19914;-76
2022/06/02 05:03:49;;;;;;;1.73;1.63;;;;;;;;;;7387289;19;20012;-76
2022/06/02 05:06:27;;;;;;;2.25;1.80;;;;;;;;;;7385385;19;20010;-76
2022/06/02 05:08:58;;;;;;;1.83;1.70;;;;;;;;;;7389332;19;20017;-76
2022/06/02 05:11:44;;;;;;;2.03;1.80;;;;;;;;;;7387751;19;20017;-75
2022/06/02 05:14:42;;;;;;;2.15;1.90;;;;;;;;;;7389901;19;20386;-76
2022/06/02 05:17:45;;;;;;;2.28;1.98;;;;;;;;;;7387311;19;20490;-76
2022/06/02 05:20:34;;;;;;;2.53;2.13;;;;;;;;;;7390094;19;20054;-76
2022/06/02 05:23:28;;;;;;;3.20;2.08;;;;;;;;;;7385799;19;20011;-77
2022/06/02 05:26:44;;;;;;;6.80;2.17;;;;;;;;;;7387248;19;20034;-76
2022/06/02 05:29:21;;;;;;;2.45;1.85;;;;;;;;;;7387213;19;20007;-78
2022/06/02 05:31:57;;;;;;;2.65;1.92;;;;;;;;;;7385826;19;20014;-76
2022/06/02 05:34:46;;;;;;;4.80;1.95;;;;;;;;;;7388559;19;20341;-76
2022/06/02 05:37:45;;;;;;;2.10;1.90;;;;;;;;;;7383839;19;20119;-76
2022/06/02 05:40:15;;;;;;;3.38;2.17;;;;;;;;;;7382567;19;20111;-74
2022/06/02 05:43:25;;;;;;;4.57;1.92;;;;;;;;;;7386007;19;20010;-74
2022/06/02 05:46:09;;;;;;;3.53;2.20;;;;;;;;;;7390902;19;20003;-75
2022/06/02 05:48:53;;;;;;;5.10;2.03;;;;;;;;;;7396997;19;20102;-75
2022/06/02 05:51:19;;;;;;;3.45;2.17;;;;;;;;;;7396369;19;20494;-75
2022/06/02 05:54:21;;;;;;;2.50;1.80;;;;;;;;;;7395054;19;20003;-74
2022/06/02 05:57:08;;;;;;;3.05;2.03;;;;;;;;;;7395009;19;20450;-74
2022/06/02 06:00:08;;;;;;;2.55;1.48;;;;;;;;;;7395130;19;20023;-75
2022/06/02 06:02:52;;;;;;;2.50;1.80;;;;;;;;;;7395328;19;20010;-74
2022/06/02 06:05:17;;;;;;;4.90;1.90;;;;;;;;;;7395519;19;20080;-74
2022/06/02 06:08:04;;;;;;;2.97;1.80;;;;;;;;;;7391763;19;20072;-75
2022/06/02 06:11:01;;;;;;;2.83;1.70;;;;;;;;;;7392880;19;20045;-75
2022/06/02 06:13:54;;;;;;;3.45;1.52;;;;;;;;;;7393361;19;20504;-75
2022/06/02 06:16:50;;;;;;;3.35;1.90;;;;;;;;;;7394118;19;20464;-74
2022/06/02 06:19:49;;;;;;;2.42;1.75;;;;;;;;;;7389687;19;20007;-74
2022/06/02 06:22:44;;;;;;;3.97;1.80;;;;;;;;;;7391849;19;20483;-74
2022/06/02 06:25:38;;;;;;;2.80;1.95;;;;;;;;;;7394354;19;20459;-74
2022/06/02 06:28:03;;;;;;;3.05;1.90;;;;;;;;;;7392849;19;20030;-74
2022/06/02 06:30:53;;;;;;;1.75;1.65;;;;;;;;;;7392941;19;20389;-74
2022/06/02 06:33:52;;;;;;;2.75;1.60;;;;;;;;;;7391428;19;20006;-74
2022/06/02 06:36:38;;;;;;;1.95;1.60;;;;;;;;;;7388562;19;20110;-74
2022/06/02 06:39:06;;;;;;;3.00;1.58;;;;;;;;;;7393857;19;20007;-74
2022/06/02 06:41:57;;;;;;;1.75;1.60;;;;;;;;;;7392639;19;20002;-74
2022/06/02 06:44:53;;;;;;;3.25;1.85;;;;;;;;;;7393579;19;20471;-74
2022/06/02 06:47:24;;;;;;;2.47;1.60;;;;;;;;;;7389839;19;20585;-74
2022/06/02 06:50:01;;;;;;;2.33;1.50;;;;;;;;;;7393137;19;20280;-74
2022/06/02 06:52:47;;;;;;;3.42;1.90;;;;;;;;;;7393709;19;20009;-74
2022/06/02 06:55:22;;;;;;;3.10;1.55;;;;;;;;;;7390208;19;20028;-74
2022/06/02 06:57:56;;;;;;;2.00;1.50;;;;;;;;;;7388611;19;20043;-74
2022/06/02 07:00:33;;;;;;;3.40;1.92;;;;;;;;;;7393251;19;20006;-74
2022/06/02 07:03:10;;;;;;;2.90;1.60;;;;;;;;;;7391734;19;20040;-74
2022/06/02 07:05:44;;;;;;;2.63;1.80;;;;;;;;;;7393990;19;20531;-74
2022/06/02 07:08:29;;;;;;;1.67;1.58;;;;;;;;;;7391883;19;20007;-74
2022/06/02 07:12:50;;;;;;;2.20;2.00;;;;;;;;;;7393940;19;20011;-74
2022/06/02 07:14:06;;;;;;;3.22;1.52;;;;;;;;;;7392371;19;20014;-74
2022/06/02 07:16:56;;;;;;;1.70;1.40;;;;;;;;;;7387077;19;20002;-74
2022/06/02 07:19:40;;;;;;;1.50;1.40;;;;;;;;;;7392476;19;20002;-74
2022/06/02 07:22:35;;;;;;;2.50;1.67;;;;;;;;;;7379983;19;22707;-74
2022/06/02 07:25:36;;;;;;;4.88;1.67;;;;;;;;;;7391161;19;20138;-74
2022/06/02 07:28:07;;;;;;;3.58;1.98;;;;;;;;;;7386294;19;20018;-74
2022/06/02 07:30:57;;;;;;;5.90;2.13;;;;;;;;;;7392367;19;20027;-74
2022/06/02 07:33:32;;;;;;;3.00;1.73;;;;;;;;;;7391999;19;20508;-74
2022/06/02 07:36:10;;;;;;;;;;;;;;;;;;7394730;19;20002;-74
2022/06/02 07:38:38;;;;;;;2.30;1.60;;;;;;;;;;7391715;19;19932;-74
2022/06/02 07:41:38;;;;;;;2.17;1.60;;;;;;;;;;7390713;19;20090;-74
2022/06/02 07:44:25;;;;;;;4.13;2.03;;;;;;;;;;7390962;19;19998;-74
2022/06/02 07:47:10;;;;;;;1.77;1.30;;;;;;;;;;7389516;19;20741;-74
2022/06/02 07:49:52;;;;;;;4.28;1.85;;;;;;;;;;7392597;19;20048;-74
2022/06/02 07:52:36;;;;;;;2.03;1.80;;;;;;;;;;7391002;19;19999;-74
2022/06/02 07:55:25;;;;;;;2.42;1.52;;;;;;;;;;7392241;19;20440;-74
2022/06/02 07:57:51;;;;;;;1.67;1.33;;;;;;;;;;7388784;19;20042;-75
2022/06/02 08:00:20;;;;;;;1.60;1.50;;;;;;;;;;7390485;19;20314;-74
2022/06/02 08:03:08;;;;;;;1.60;1.50;;;;;;;;;;7382170;19;19999;-74
2022/06/02 08:05:44;;;;;;;2.70;1.58;;;;;;;;;;7390032;19;20007;-74
2022/06/02 08:08:29;;;;;;;4.43;1.77;;;;;;;;;;7388212;19;20006;-74
2022/06/02 08:11:13;;;;;;;1.85;1.52;;;;;;;;;;7392330;19;20347;-74
2022/06/02 08:13:47;;;;;;;4.32;1.90;;;;;;;;;;7388095;19;20031;-75
2022/06/02 08:16:21;;;;;;;1.80;1.50;;;;;;;;;;7391388;19;20027;-74
2022/06/02 08:18:53;;;;;;;1.95;1.70;;;;;;;;;;7390810;19;20003;-74
2022/06/02 08:21:30;;;;;;;2.00;1.80;;;;;;;;;;7387388;19;20223;-74
2022/06/02 08:24:25;;;;;;;2.53;1.65;;;;;;;;;;7390936;19;19998;-74
2022/06/02 08:27:23;;;;;;;4.50;1.80;;;;;;;;;;7384460;19;20027;-74
2022/06/02 08:30:20;;;;;;;2.42;1.40;;;;;;;;;;7390859;19;20070;-74
2022/06/02 08:33:24;;;;;;;2.70;1.77;;;;;;;;;;7387368;19;20021;-75
2022/06/02 08:35:57;;;;;;;1.65;1.35;;;;;;;;;;7391103;19;20424;-74
2022/06/02 08:38:47;;;;;;;1.63;1.52;;;;;;;;;;7387935;19;20007;-75
2022/06/02 08:41:33;;;;;;;3.20;1.52;;;;;;;;;;7386525;19;20007;-75
2022/06/02 08:44:20;;;;;;;4.07;1.48;;;;;;;;;;7387575;19;20490;-76
2022/06/02 08:46:54;;;;;;;1.42;1.25;;;;;;;;;;7384924;19;20455;-76
2022/06/02 08:49:36;;;;;;;2.38;1.70;;;;;;;;;;7389423;19;20017;-76
2022/06/02 08:52:30;;;;;;;2.83;1.65;;;;;;;;;;7391214;19;20014;-76
2022/06/02 08:55:25;;;;;;;2.40;1.55;;;;;;;;;;7390885;19;20006;-76
2022/06/02 08:58:06;;;;;;;1.77;1.48;;;;;;;;;;7386409;19;20039;-76
2022/06/02 09:01:10;;;;;;;2.60;1.60;;;;;;;;;;7386902;19;20017;-77
2022/06/02 09:03:36;;;;;;;2.42;1.60;;;;;;;;;;7389072;19;20018;-76
2022/06/02 09:06:43;;;;;;;4.03;1.60;;;;;;;;;;7388493;19;20673;-75
2022/06/02 09:09:40;;;;;;;2.40;1.50;;;;;;;;;;7389913;19;20668;-76
2022/06/02 09:12:35;;;;;;;2.17;1.77;;;;;;;;;;7388855;19;20002;-76
2022/06/02 09:15:15;;;;;;;;;;;;;;;;;;7393694;19;20106;-76
2022/06/02 09:17:57;;;;;;;1.88;1.67;;;;;;;;;;7403829;19;19957;-76
2022/06/02 09:20:50;;;;;;;3.78;1.60;;;;;;;;;;7406717;19;20029;-76
2022/06/02 09:23:15;;;;;;;1.98;1.58;;;;;;;;;;7395241;19;20082;-76
2022/06/02 09:26:09;;;;;;;4.03;1.45;;;;;;;;;;7395173;19;20123;-75
2022/06/02 09:28:49;;;;;;;2.38;1.40;;;;;;;;;;7397717;19;20064;-76
2022/06/02 09:31:20;;;;;;;3.20;1.40;;;;;;;;;;7396054;19;20013;-76
2022/06/02 09:34:07;;;;;;;3.58;1.45;;;;;;;;;;7391627;19;20361;-76
2022/06/02 09:36:53;;;;;;;2.80;1.83;;;;;;;;;;7394712;19;20325;-77
2022/06/02 09:39:49;;;;;;;3.75;1.58;;;;;;;;;;7393528;19;20491;-76
2022/06/02 09:42:14;;;;;;;1.40;1.30;;;;;;;;;;7395128;19;20123;-76
2022/06/02 09:44:52;;;;;;;1.33;1.23;;;;;;;;;;7396958;19;20018;-76
2022/06/02 09:47:49;;;;;;;2.47;1.70;;;;;;;;;;7393997;19;20260;-76
2022/06/02 09:50:26;;;;;;;1.60;1.50;;;;;;;;;;7395796;19;20507;-76
2022/06/02 09:53:21;;;;;;;2.00;1.60;;;;;;;;;;7391942;19;20019;-76
2022/06/02 09:56:11;;;;;;;2.70;1.60;;;;;;;;;;7394500;19;20015;-75
2022/06/02 09:58:47;;;;;;;2.40;1.40;;;;;;;;;;7395603;19;20018;-75
2022/06/02 10:01:20;;;;;;;4.78;1.40;;;;;;;;;;7389947;19;20010;-75
2022/06/02 10:04:04;;;;;;;1.30;1.20;;;;;;;;;;7388913;19;20025;-76
2022/06/02 10:07:10;;;;;;;1.10;1.00;;;;;;;;;;7392554;19;20026;-75
2022/06/02 10:09:54;;;;;;;;;;;;;;;;;;7396266;19;20153;-75
2022/06/02 10:12:55;;;;;;;3.40;1.40;;;;;;;;;;7394147;19;20282;-75
2022/06/02 10:15:29;;;;;;;1.33;1.20;;;;;;;;;;7394056;19;20014;-76
2022/06/02 10:17:56;;;;;;;3.15;1.40;;;;;;;;;;7392175;19;20011;-75
2022/06/02 10:20:30;;;;;;;2.22;1.30;;;;;;;;;;7389429;19;20378;-75
2022/06/02 10:23:11;;;;;;;2.17;1.80;;;;;;;;;;7394566;19;20123;-76
2022/06/02 10:25:50;;;;;;;1.92;1.45;;;;;;;;;;7394477;19;20262;-75
2022/06/02 10:29:00;;;;;;;2.45;1.70;;;;;;;;;;7389846;19;20025;-76
2022/06/02 10:31:25;;;;;;;1.48;1.38;;;;;;;;;;7393534;19;20027;-76
2022/06/02 10:34:04;;;;;;;3.50;1.30;;;;;;;;;;7391537;19;20010;-76
2022/06/02 10:37:07;;;;;;;1.92;1.35;;;;;;;;;;7390459;19;20284;-76
2022/06/02 10:40:10;;;;;;;1.45;1.35;;;;;;;;;;7387908;19;20098;-76
2022/06/02 10:43:11;;;;;;;2.92;1.27;;;;;;;;;;7394780;19;20017;-75
2022/06/02 10:46:26;;;;;;;1.15;1.10;;;;;;;;;;7390693;19;20042;-76
2022/06/02 10:49:34;;;;;;;0.73;0.70;;;;;;;;;;7389257;19;20075;-76
2022/06/02 10:52:38;;;;;;;1.35;0.90;;;;;;;;;;7391454;19;20006;-77
2022/06/02 10:55:25;;;;;;;3.67;0.90;;;;;;;;;;7394456;19;20007;-76
2022/06/02 10:58:18;;;;;;;1.90;0.90;;;;;;;;;;7390159;19;20014;-76
2022/06/02 11:01:02;;;;;;;1.30;0.63;;;;;;;;;;7392729;19;20448;-76
2022/06/02 11:03:52;;;;;;;1.08;0.85;;;;;;;;;;7392661;19;20341;-77
2022/06/02 11:06:42;;;;;;;1.35;0.80;;;;;;;;;;7392233;19;20010;-77
2022/06/02 11:09:30;;;;;;;3.38;1.17;;;;;;;;;;7398471;19;20014;-77
2022/06/02 11:12:14;;;;;;;0.88;0.88;;;;;;;;;;7393993;19;20037;-77
2022/06/02 11:14:46;;;;;;;4.00;1.25;;;;;;;;;;7394451;19;20010;-77
2022/06/02 11:17:29;;;;;;;0.80;0.80;;;;;;;;;;7392123;19;20010;-77
2022/06/02 11:20:01;;;;;;;1.20;1.10;;;;;;;;;;7395711;19;20476;-76
2022/06/02 11:22:48;;;;;;;1.30;1.20;;;;;;;;;;7397217;19;21293;-77
2022/06/02 11:25:52;;;;;;;1.27;1.08;;;;;;;;;;7390458;19;20011;-77
2022/06/02 11:28:35;;;;;;;2.10;1.30;;;;;;;;;;7389845;19;20082;-76
2022/06/02 11:31:01;;;;;;;1.42;1.10;;;;;;;;;;7395687;19;20396;-77
2022/06/02 11:33:51;;;;;;;2.00;1.10;;;;;;;;;;7392974;19;20011;-77
2022/06/02 11:36:46;;;;;;;1.25;1.08;;;;;;;;;;7393585;19;20243;-76
2022/06/02 11:39:33;;;;;;;2.60;1.20;;;;;;;;;;7392609;19;20039;-76
2022/06/02 11:42:17;;;;;;;1.67;0.93;;;;;;;;;;7391314;19;20013;-76
2022/06/02 11:45:06;;;;;;;2.22;1.23;;;;;;;;;;7390936;19;20005;-76
2022/06/02 11:47:47;;;;;;;1.70;1.27;;;;;;;;;;7386325;19;20467;-76
2022/06/02 11:50:27;;;;;;;1.20;1.10;;;;;;;;;;7391396;19;20011;-76
2022/06/02 11:53:30;;;;;;;1.08;1.00;;;;;;;;;;7391280;19;20356;-77
2022/06/02 11:56:04;;;;;;;3.83;1.08;;;;;;;;;;7387856;19;20024;-77
2022/06/02 11:58:38;;;;;;;2.00;1.10;;;;;;;;;;7392430;19;20019;-75
2022/06/02 12:01:28;;;;;;;1.20;1.10;;;;;;;;;;7391979;19;20065;-75
2022/06/02 12:04:25;;;;;;;1.42;1.00;;;;;;;;;;7388601;19;20007;-75
2022/06/02 12:07:02;;;;;;;1.80;1.20;;;;;;;;;;7385593;19;20473;-75
2022/06/02 12:09:56;;;;;;;1.33;1.00;;;;;;;;;;7387938;19;20081;-75
2022/06/02 12:12:51;;;;;;;1.80;1.10;;;;;;;;;;7387927;19;20014;-76
2022/06/02 12:15:38;;;;;;;1.35;1.00;;;;;;;;;;7388730;19;20057;-76
2022/06/02 12:18:32;;;;;;;1.50;0.90;;;;;;;;;;7387119;19;20007;-75
2022/06/02 12:21:03;;;;;;;1.80;0.73;;;;;;;;;;7387704;19;20016;-76
2022/06/02 12:24:19;;;;;;;0.93;0.82;;;;;;;;;;7388016;19;20368;-75
2022/06/02 12:26:56;;;;;;;1.08;0.80;;;;;;;;;;7384201;19;20015;-75
2022/06/02 12:29:44;;;;;;;1.60;1.00;;;;;;;;;;7385027;19;20103;-76
2022/06/02 12:32:45;;;;;;;1.02;0.80;;;;;;;;;;7391128;19;20002;-76
2022/06/02 12:35:25;;;;;;;1.85;0.98;;;;;;;;;;7390384;19;20314;-76
2022/06/02 12:38:17;;;;;;;2.22;1.05;;;;;;;;;;7390833;19;20018;-76
2022/06/02 12:41:05;;;;;;;1.25;0.80;;;;;;;;;;7390465;19;20003;-75
2022/06/02 12:44:04;;;;;;;1.15;0.93;;;;;;;;;;7390610;19;20523;-77
2022/06/02 12:47:00;;;;;;;0.88;0.80;;;;;;;;;;7389168;19;20487;-76
2022/06/02 12:49:56;;;;;;;3.30;0.82;;;;;;;;;;7392087;19;20034;-76
2022/06/02 12:52:38;;;;;;;1.50;0.80;;;;;;;;;;7388756;19;20018;-77
2022/06/02 12:55:31;;;;;;;1.70;0.80;;;;;;;;;;7389305;19;20031;-76
2022/06/02 12:58:27;;;;;;;5.65;1.42;;;;;;;;;;7388318;19;20017;-75
2022/06/02 13:01:23;;;;;;;1.45;1.10;;;;;;;;;;7389369;19;20501;-76
2022/06/02 13:03:54;;;;;;;2.80;1.00;;;;;;;;;;7386672;19;20390;-76
2022/06/02 13:06:46;;;;;;;1.13;0.85;;;;;;;;;;7388531;19;20373;-77
2022/06/02 13:09:30;;;;;;;1.15;0.80;;;;;;;;;;7388711;19;20006;-76
2022/06/02 13:12:13;;;;;;;1.85;0.90;;;;;;;;;;7387590;19;20092;-76
2022/06/02 13:15:07;;;;;;;1.25;0.73;;;;;;;;;;7386550;19;20103;-77
2022/06/02 13:17:43;;;;;;;1.48;0.90;;;;;;;;;;7388553;19;20023;-77
2022/06/02 13:20:46;;;;;;;3.22;0.90;;;;;;;;;;7388304;19;20031;-76
2022/06/02 13:23:37;;;;;;;1.67;0.90;;;;;;;;;;7388618;19;20003;-76
2022/06/02 13:26:29;;;;;;;1.52;1.00;;;;;;;;;;7389874;19;20084;-77
2022/06/02 13:29:09;;;;;;;1.35;0.98;;;;;;;;;;7387253;19;20078;-76
2022/06/02 13:31:35;;;;;;;1.00;0.90;;;;;;;;;;7387482;19;20048;-77
2022/06/02 13:34:37;;;;;;;2.55;1.13;;;;;;;;;;7390613;19;20018;-77
2022/06/02 13:37:44;;;;;;;1.77;0.85;;;;;;;;;;7390699;19;20049;-76
2022/06/02 13:40:49;;;;;;;0.80;0.80;;;;;;;;;;7390385;19;20292;-78
2022/06/02 13:43:38;;;;;;;1.40;0.90;;;;;;;;;;7387763;19;20006;-78
2022/06/02 13:46:40;;;;;;;0.90;0.90;;;;;;;;;;7391147;19;20014;-78
2022/06/02 13:49:15;;;;;;;1.58;0.80;;;;;;;;;;7389298;19;20070;-77
2022/06/02 13:52:18;;;;;;;1.42;0.90;;;;;;;;;;7389924;19;20013;-78
2022/06/02 13:57:44;;;;;;;1.52;1.00;;;;;;;;;;7390071;19;20409;-77
2022/06/02 14:00:28;;;;;;;1.25;0.95;;;;;;;;;;7391574;19;20023;-77
2022/06/02 14:03:11;;;;;;;4.70;0.77;;;;;;;;;;7386618;19;20007;-76
2022/06/02 14:06:05;;;;;;;0.77;0.70;;;;;;;;;;7390612;19;20334;-76
2022/06/02 14:08:40;;;;;;;1.85;0.95;;;;;;;;;;7396028;19;20003;-76
2022/06/02 14:11:11;;;;;;;1.60;1.23;;;;;;;;;;7394945;19;20011;-75
2022/06/02 14:13:45;;;;;;;1.23;0.85;;;;;;;;;;7392346;19;20440;-76
2022/06/02 14:17:01;;;;;;;1.73;0.90;;;;;;;;;;7396461;19;19998;-77
2022/06/02 14:19:41;;;;;;;4.13;0.73;;;;;;;;;;7390574;19;20014;-77
2022/06/02 14:22:22;;;;;;;4.18;1.00;;;;;;;;;;7391718;19;20023;-78
2022/06/02 14:25:16;;;;;;;1.58;0.90;;;;;;;;;;7393849;19;20016;-76
2022/06/02 14:28:00;;;;;;;1.00;0.88;;;;;;;;;;7392005;19;20018;-76
2022/06/02 14:30:43;;;;;;;1.50;0.70;;;;;;;;;;7395650;19;20355;-75
2022/06/02 14:33:26;;;;;;;0.68;0.68;;;;;;;;;;7395163;19;20401;-76
2022/06/02 14:36:09;;;;;;;1.00;0.90;;;;;;;;;;7396512;19;20132;-77
2022/06/02 14:39:11;;;;;;;0.80;0.77;;;;;;;;;;7394732;19;20002;-76
2022/06/02 14:42:14;;;;;;;1.95;0.80;;;;;;;;;;7386965;19;20010;-77
2022/06/02 14:44:58;;;;;;;1.05;0.73;;;;;;;;;;7394414;19;20010;-77
2022/06/02 14:47:57;;;;;;;2.23;1.00;;;;;;;;;;7393706;19;20003;-76
2022/06/02 14:50:25;;;;;;;0.88;0.80;;;;;;;;;;7394845;19;20246;-75
2022/06/02 14:53:10;;;;;;;2.42;2.00;;;;;;;;;;7392051;19;20333;-76
2022/06/02 14:55:41;;;;;;;1.15;1.02;;;;;;;;;;7394862;19;20015;-76
2022/06/02 14:58:34;;;;;;;4.22;1.00;;;;;;;;;;7390850;19;20080;-76
2022/06/02 15:01:17;;;;;;;0.85;0.85;;;;;;;;;;7387762;19;20507;-76
2022/06/02 15:04:15;;;;;;;0.98;0.77;;;;;;;;;;7385708;19;20023;-76
2022/06/02 15:07:10;;;;;;;1.83;0.90;;;;;;;;;;7392891;19;20021;-75
2022/06/02 15:10:02;;;;;;;1.25;0.73;;;;;;;;;;7392609;19;20014;-76
2022/06/02 15:12:51;;;;;;;0.80;0.80;;;;;;;;;;7384843;19;20032;-75
2022/06/02 15:15:26;;;;;;;0.68;0.60;;;;;;;;;;7390132;19;20025;-75
2022/06/02 15:18:37;;;;;;;0.90;0.70;;;;;;;;;;7388044;19;20058;-76
2022/06/02 15:21:14;;;;;;;0.73;0.70;;;;;;;;;;7388265;19;20015;-76
2022/06/02 15:24:23;;;;;;;2.28;0.60;;;;;;;;;;7390069;19;20022;-75
2022/06/02 15:27:07;;;;;;;1.80;0.80;;;;;;;;;;7389626;19;20367;-76
2022/06/02 15:30:00;;;;;;;2.73;0.80;;;;;;;;;;7392669;19;19998;-75
2022/06/02 15:32:32;;;;;;;3.08;1.05;;;;;;;;;;7388013;19;20122;-76
2022/06/02 15:35:11;;;;;;;0.93;0.90;;;;;;;;;;7388546;19;20365;-76
2022/06/02 15:38:18;;;;;;;1.40;0.93;;;;;;;;;;7389964;19;20014;-75
2022/06/02 15:41:04;;;;;;;0.90;0.65;;;;;;;;;;7391199;19;20014;-76
2022/06/02 15:44:14;;;;;;;0.80;0.80;;;;;;;;;;7390862;19;19995;-76
2022/06/02 15:47:20;;;;;;;1.25;0.77;;;;;;;;;;7386699;19;20015;-75
2022/06/02 15:50:01;;;;;;;3.30;0.88;;;;;;;;;;7390883;19;20014;-76
2022/06/02 15:52:47;;;;;;;1.00;0.85;;;;;;;;;;7391008;19;20034;-75
2022/06/02 15:55:44;;;;;;;1.52;0.65;;;;;;;;;;7390964;19;20033;-76
2022/06/02 15:58:42;;;;;;;2.40;1.55;;;;;;;;;;7408955;19;20344;-81
2022/06/02 16:01:47;;;;;;;4.18;1.50;;;;;;;;;;7393484;19;20007;-81
2022/06/02 16:04:46;;;;;;;3.33;1.00;;;;;;;;;;7382855;19;20003;-74
2022/06/02 16:07:56;;;;;;;1.65;1.08;;;;;;;;;;7387266;19;20146;-73
2022/06/02 16:14:01;;;;;;;1.63;1.05;;;;;;;;;;7391006;19;20005;-74
2022/06/02 16:16:57;;;;;;;1.90;1.00;;;;;;;;;;7390061;19;20026;-74
2022/06/02 16:19:38;;;;;;;1.67;1.15;;;;;;;;;;7389080;19;20018;-74
2022/06/02 16:22:47;;;;;;;1.60;1.05;;;;;;;;;;7384287;19;20119;-74
2022/06/02 16:25:23;;;;;;;4.35;1.58;;;;;;;;;;7389031;19;20006;-74
2022/06/02 16:27:49;;;;;;;1.42;1.10;;;;;;;;;;7386083;19;20041;-74
2022/06/02 16:30:21;;;;;;;1.07;1.00;;;;;;;;;;7387886;19;20006;-74
2022/06/02 16:33:09;;;;;;;2.65;1.13;;;;;;;;;;7387497;19;20711;-74
2022/06/02 16:36:07;;;;;;;2.00;1.10;;;;;;;;;;7389899;19;20011;-75
2022/06/02 16:39:01;;;;;;;1.38;1.20;;;;;;;;;;7387282;19;20010;-75
2022/06/02 16:41:57;;;;;;;1.42;1.17;;;;;;;;;;7389122;19;20093;-74
2022/06/02 16:44:35;;;;;;;1.90;1.30;;;;;;;;;;7388234;19;20010;-74
2022/06/02 16:47:37;;;;;;;1.63;1.20;;;;;;;;;;7386149;19;20435;-74
2022/06/02 16:50:18;;;;;;;2.67;1.20;;;;;;;;;;7388306;19;20050;-74
2022/06/02 16:52:49;;;;;;;1.60;1.50;;;;;;;;;;7387902;19;20003;-75